createdAt,value
2023-04-18T00:06:32.773Z,102310.88
2023-04-18T00:16:38.159Z,102294.53
2023-04-18T00:26:41.266Z,102309.25
2023-04-18T00:36:46.354Z,102310.75
2023-04-18T00:46:49.360Z,102297.50
2023-04-18T00:56:54.034Z,102297.88
2023-04-18T01:06:57.232Z,102294.78
2023-04-18T01:17:02.287Z,102294.38
2023-04-18T01:27:06.478Z,102295.09
2023-04-18T01:37:12.215Z,102283.66
2023-04-18T01:47:17.644Z,102280.50
2023-04-18T01:57:20.668Z,102276.50
2023-04-18T02:07:26.814Z,102263.63
2023-04-18T02:17:30.530Z,102270.16
2023-04-18T02:27:34.963Z,102261.13
2023-04-18T02:37:37.938Z,102255.56
2023-04-18T02:47:53.792Z,102259.31
2023-04-18T02:57:58.934Z,102258.41
2023-04-18T03:08:09.384Z,102257.50
2023-04-18T03:18:14.748Z,102251.97
2023-04-18T03:28:21.722Z,102264.94
2023-04-18T03:38:24.840Z,102258.56
2023-04-18T03:48:29.825Z,102264.56
2023-04-18T03:58:37.062Z,102257.81
2023-04-18T04:08:41.791Z,102265.00
2023-04-18T04:18:45.007Z,102262.13
2023-04-18T04:28:51.630Z,102274.72
2023-04-18T04:38:58.621Z,102270.81
2023-04-18T04:49:11.653Z,102271.47
2023-04-18T04:59:14.941Z,102282.66
2023-04-18T05:09:22.092Z,102281.38
2023-04-18T05:19:25.220Z,102288.47
2023-04-18T05:29:29.744Z,102293.22
2023-04-18T05:39:32.751Z,102298.75
2023-04-18T05:49:37.226Z,102315.06
2023-04-18T05:59:40.340Z,102321.34
2023-04-18T06:09:44.820Z,102319.84
2023-04-18T06:19:47.881Z,102327.94
2023-04-18T06:29:52.255Z,102333.47
2023-04-18T06:39:55.322Z,102343.03
2023-04-18T06:49:59.777Z,102347.97
2023-04-18T07:00:02.827Z,102346.72
2023-04-18T07:10:09.916Z,102367.38
2023-04-18T07:20:14.409Z,102365.97
2023-04-18T07:30:18.953Z,102359.69
2023-04-18T07:40:22.512Z,102372.56
2023-04-18T07:50:27.093Z,102377.69
2023-04-18T08:00:32.632Z,102380.91
2023-04-18T08:10:37.957Z,102371.66
2023-04-18T08:20:41.209Z,102388.75
2023-04-18T08:30:48.769Z,102376.72
2023-04-18T08:40:51.880Z,102389.91
2023-04-18T08:50:59.694Z,102397.28
2023-04-18T09:01:03.475Z,102376.25
2023-04-18T09:11:26.176Z,102371.59
2023-04-18T09:21:29.801Z,102388.81
2023-04-18T09:31:35.773Z,102375.38
2023-04-18T09:41:38.794Z,102366.81
2023-04-18T09:51:44.693Z,102357.25
2023-04-18T10:01:48.658Z,102358.47
2023-04-18T10:11:53.987Z,102357.00
2023-04-18T10:21:58.979Z,102372.56
2023-04-18T10:32:07.353Z,102367.16
2023-04-18T10:42:10.423Z,102368.31
2023-04-18T10:52:15.675Z,102363.84
2023-04-18T11:02:26.269Z,102366.28
2023-04-18T11:12:34.229Z,102354.50
2023-04-18T11:22:46.594Z,102351.63
2023-04-18T11:32:51.822Z,102358.97
2023-04-18T11:42:55.735Z,102358.31
2023-04-18T11:53:00.162Z,102362.28
2023-04-18T12:03:05.480Z,102360.91
2023-04-18T12:13:10.155Z,102350.44
2023-04-18T12:23:30.875Z,102355.47
2023-04-18T12:33:36.749Z,102370.44
2023-04-18T12:43:39.851Z,102357.63
2023-04-18T12:53:44.202Z,102344.47
2023-04-18T13:03:56.515Z,102361.88
2023-04-18T13:14:08.687Z,102353.91
2023-04-18T13:24:12.155Z,102344.16
2023-04-18T13:34:17.653Z,102349.25
2023-04-18T13:44:21.210Z,102347.78
2023-04-18T13:54:26.713Z,102343.94
2023-04-18T14:04:31.949Z,102345.69
2023-04-18T14:14:37.123Z,102332.81
2023-04-18T14:24:40.331Z,102328.50
2023-04-18T14:34:45.216Z,102329.34
2023-04-18T14:44:48.364Z,102319.13
2023-04-18T14:54:52.729Z,102319.28
2023-04-18T15:04:55.867Z,102316.19
2023-04-18T15:15:00.649Z,102318.59
2023-04-18T15:25:04.155Z,102297.94
2023-04-18T15:35:09.412Z,102292.78
2023-04-18T15:45:13.143Z,102299.53
2023-04-18T15:55:17.565Z,102295.00
2023-04-18T16:05:21.395Z,102284.81
2023-04-18T16:15:26.211Z,102295.47
2023-04-18T16:25:30.502Z,102275.72
2023-04-18T16:35:35.801Z,102277.38
2023-04-18T16:45:38.814Z,102277.69
2023-04-18T16:55:43.276Z,102278.50
2023-04-18T17:05:46.675Z,102265.59
2023-04-18T17:15:51.219Z,102273.34
2023-04-18T17:25:54.266Z,102263.09
2023-04-18T17:35:58.710Z,102268.25
2023-04-18T17:46:03.636Z,102269.69
2023-04-18T17:56:08.259Z,102277.44
2023-04-18T18:06:12.990Z,102286.69
2023-04-18T18:16:17.419Z,102285.41
2023-04-18T18:26:20.439Z,102290.28
2023-04-18T18:36:25.036Z,102280.00
2023-04-18T18:46:28.310Z,102293.97
2023-04-18T18:56:32.817Z,102300.38
2023-04-18T19:06:35.878Z,102305.97
2023-04-18T19:16:40.320Z,102313.50
2023-04-18T19:26:43.540Z,102312.13
2023-04-18T19:36:48.006Z,102317.31
2023-04-18T19:46:51.081Z,102327.47
2023-04-18T19:56:55.602Z,102336.88
2023-04-18T20:06:58.608Z,102333.38
2023-04-18T20:17:03.063Z,102337.34
2023-04-18T20:27:06.308Z,102338.53
2023-04-18T20:37:10.690Z,102360.34
2023-04-18T20:47:15.248Z,102345.59
2023-04-18T20:57:20.964Z,102350.63
2023-04-18T21:07:23.961Z,102350.66
2023-04-18T21:17:28.327Z,102364.28
2023-04-18T21:27:31.620Z,102371.66
2023-04-18T21:37:36.123Z,102374.38
2023-04-18T21:47:39.529Z,102363.09
2023-04-18T21:57:43.909Z,102359.56
2023-04-18T22:07:57.457Z,102361.91
2023-04-18T22:18:03.875Z,102361.53
2023-04-18T22:28:08.487Z,102372.78
2023-04-18T22:38:12.922Z,102361.88
2023-04-18T22:48:17.127Z,102363.41
2023-04-18T22:58:21.560Z,102360.69
2023-04-18T23:08:24.518Z,102362.59
2023-04-18T23:18:29.843Z,102370.38
2023-04-18T23:28:34.003Z,102372.31
2023-04-18T23:38:38.493Z,102374.69
2023-04-18T23:48:41.489Z,102368.53
2023-04-18T23:58:45.828Z,102369.72
